Time;durP1;ratioP1;P1;durP2;ratioP2;P2;SDS_P1;SDS_P2;PMS_P1;PMS_P2;Temp;Humidity;BMP_temperature;BMP_pressure;BME280_temperature;BME280_humidity;BME280_pressure;Samples;Min_cycle;Max_cycle;Signal;HPM_P1;HPM_P2
2024/01/12 00:01:44;;;;;;;48.83;26.30;;;4.70;99.90;;;;;;7296538;19;20197;-80
2024/01/12 00:04:11;;;;;;;49.80;25.57;;;4.70;99.90;;;;;;7306213;19;20246;-80
2024/01/12 00:06:37;;;;;;;48.50;25.83;;;4.70;99.90;;;;;;7284091;19;20220;-80
2024/01/12 00:09:04;;;;;;;51.13;27.03;;;4.70;99.90;;;;;;7285222;19;20218;-80
2024/01/12 00:11:30;;;;;;;56.10;27.27;;;4.80;99.90;;;;;;7285157;19;20181;-80
2024/01/12 00:13:56;;;;;;;53.67;26.83;;;4.80;99.90;;;;;;7290113;19;20649;-80
2024/01/12 00:16:22;;;;;;;53.50;26.80;;;4.80;99.90;;;;;;7290297;19;20183;-80
2024/01/12 00:18:47;;;;;;;51.37;27.03;;;4.70;99.90;;;;;;7290267;19;20188;-80
2024/01/12 00:21:13;;;;;;;55.73;26.07;;;4.70;99.90;;;;;;7306242;19;20196;-80
2024/01/12 00:23:39;;;;;;;48.53;25.90;;;4.80;99.90;;;;;;7285758;19;20686;-80
2024/01/12 00:26:05;;;;;;;47.67;25.70;;;4.80;99.90;;;;;;7284422;19;20197;-80
2024/01/12 00:28:34;;;;;;;51.73;25.73;;;4.70;99.90;;;;;;7285663;19;20195;-80
2024/01/12 00:31:00;;;;;;;53.50;25.83;;;4.70;99.90;;;;;;7282759;19;20192;-80
2024/01/12 00:33:25;;;;;;;56.83;27.63;;;4.70;99.90;;;;;;7283434;19;20659;-80
2024/01/12 00:35:51;;;;;;;50.13;26.93;;;4.70;99.90;;;;;;7282508;19;20782;-80
2024/01/12 00:38:17;;;;;;;51.17;26.87;;;4.80;99.90;;;;;;7280049;19;20914;-80
2024/01/12 00:40:43;;;;;;;52.33;25.83;;;4.70;99.90;;;;;;7304450;19;20199;-80
2024/01/12 00:43:09;;;;;;;52.17;26.43;;;4.60;99.90;;;;;;7283597;19;20297;-81
2024/01/12 00:45:34;;;;;;;52.13;27.03;;;4.60;99.90;;;;;;7284037;19;20192;-79
2024/01/12 00:48:00;;;;;;;47.87;25.70;;;4.60;99.90;;;;;;7280226;19;20648;-80
2024/01/12 00:50:26;;;;;;;48.50;25.90;;;4.60;99.90;;;;;;7282413;19;20193;-80
2024/01/12 00:52:52;;;;;;;50.33;25.57;;;4.70;99.90;;;;;;7281347;19;20194;-79
2024/01/12 00:55:18;;;;;;;50.63;26.27;;;4.70;99.90;;;;;;7281805;19;20186;-79
2024/01/12 00:57:43;;;;;;;48.00;26.13;;;4.80;99.90;;;;;;7301205;19;20216;-79
2024/01/12 01:00:10;;;;;;;53.37;27.53;;;4.80;99.90;;;;;;7290969;19;20250;-80
2024/01/12 01:02:35;;;;;;;53.20;26.97;;;4.90;99.90;;;;;;7280445;19;20198;-80
2024/01/12 01:05:02;;;;;;;56.00;26.03;;;4.90;99.90;;;;;;7281430;19;20929;-80
2024/01/12 01:07:28;;;;;;;54.63;27.00;;;4.80;99.90;;;;;;7281804;19;20201;-79
2024/01/12 01:09:54;;;;;;;59.13;27.77;;;4.90;99.90;;;;;;7281623;19;20192;-79
2024/01/12 01:12:20;;;;;;;51.00;26.57;;;4.80;99.90;;;;;;7281177;19;20599;-79
2024/01/12 01:14:46;;;;;;;50.37;26.80;;;4.80;99.90;;;;;;7281474;19;20713;-79
2024/01/12 01:17:12;;;;;;;51.70;27.27;;;4.70;99.90;;;;;;7302731;19;20197;-80
2024/01/12 01:19:38;;;;;;;50.33;26.80;;;4.80;99.90;;;;;;7282794;19;20193;-79
2024/01/12 01:22:05;;;;;;;53.33;27.10;;;4.80;99.90;;;;;;7282602;19;20186;-79
2024/01/12 01:24:31;;;;;;;61.30;28.07;;;4.80;99.90;;;;;;7280416;19;20226;-80
2024/01/12 01:26:57;;;;;;;52.17;27.23;;;4.80;99.90;;;;;;7281912;19;20201;-79
2024/01/12 01:29:23;;;;;;;53.80;27.23;;;4.90;99.90;;;;;;7280653;19;20197;-80
2024/01/12 01:31:49;;;;;;;54.87;27.57;;;4.90;99.90;;;;;;7280310;19;20188;-79
2024/01/12 01:34:15;;;;;;;58.90;29.13;;;4.90;99.90;;;;;;7293529;19;20202;-79
2024/01/12 01:36:43;;;;;;;62.53;30.00;;;4.90;99.90;;;;;;7304080;19;20224;-81
2024/01/12 01:39:09;;;;;;;64.43;32.60;;;4.90;99.90;;;;;;7284232;19;20255;-80
2024/01/12 01:41:36;;;;;;;75.80;38.23;;;4.80;99.90;;;;;;7279787;19;20204;-80
2024/01/12 01:44:02;;;;;;;83.53;40.83;;;4.80;99.90;;;;;;7280080;19;20195;-80
2024/01/12 01:46:28;;;;;;;131.47;55.83;;;4.80;99.90;;;;;;7280908;19;20244;-80
2024/01/12 01:48:55;;;;;;;106.10;49.17;;;4.70;99.90;;;;;;7279908;19;20554;-79
2024/01/12 01:51:21;;;;;;;97.50;46.23;;;4.70;99.90;;;;;;7286062;19;20547;-80
2024/01/12 01:53:47;;;;;;;94.83;45.83;;;4.70;99.90;;;;;;7287045;19;20224;-79
2024/01/12 01:56:14;;;;;;;105.10;48.60;;;4.80;99.90;;;;;;7307011;19;20223;-80
2024/01/12 01:58:42;;;;;;;87.77;44.03;;;4.70;99.90;;;;;;7285965;19;20198;-79
2024/01/12 02:01:09;;;;;;;74.77;37.57;;;4.70;99.90;;;;;;7287724;19;20191;-81
2024/01/12 02:03:36;;;;;;;68.73;37.20;;;4.80;99.90;;;;;;7286128;19;20881;-79
2024/01/12 02:06:03;;;;;;;64.93;33.27;;;4.80;99.90;;;;;;7283241;19;20199;-79
2024/01/12 02:08:29;;;;;;;66.17;33.03;;;4.80;99.90;;;;;;7284716;19;20196;-79
2024/01/12 02:10:56;;;;;;;70.40;34.93;;;4.60;99.90;;;;;;7284982;19;20212;-79
2024/01/12 02:13:22;;;;;;;66.57;34.43;;;4.40;99.90;;;;;;7284630;19;20190;-79
2024/01/12 02:15:48;;;;;;;62.63;31.67;;;4.40;99.90;;;;;;7283941;19;20216;-79
2024/01/12 02:18:13;;;;;;;62.07;30.37;;;4.40;99.90;;;;;;7305477;19;20266;-80
2024/01/12 02:20:39;;;;;;;62.03;31.23;;;4.40;99.90;;;;;;7284307;19;20214;-79
2024/01/12 02:23:05;;;;;;;57.33;30.20;;;4.50;99.90;;;;;;7283624;19;20251;-79
2024/01/12 02:25:31;;;;;;;62.20;31.43;;;4.50;99.90;;;;;;7287026;19;20223;-79
2024/01/12 02:27:57;;;;;;;66.07;32.20;;;4.50;99.90;;;;;;7284379;19;20213;-79
2024/01/12 02:30:22;;;;;;;62.23;31.40;;;4.50;99.90;;;;;;7286928;19;20228;-79
2024/01/12 02:32:49;;;;;;;63.23;30.90;;;4.50;99.90;;;;;;7286476;19;20531;-79
2024/01/12 02:35:14;;;;;;;70.40;35.60;;;4.60;99.90;;;;;;7298930;19;20186;-78
2024/01/12 02:37:40;;;;;;;73.00;35.00;;;4.60;99.90;;;;;;7301039;19;20198;-78
2024/01/12 02:40:06;;;;;;;63.83;33.30;;;4.60;99.90;;;;;;7286337;19;20228;-79
2024/01/12 02:42:32;;;;;;;58.63;31.13;;;4.50;99.90;;;;;;7281433;19;20237;-79
2024/01/12 02:44:58;;;;;;;66.07;31.47;;;4.40;99.90;;;;;;7285995;19;20193;-79
2024/01/12 02:47:23;;;;;;;62.07;30.17;;;4.50;99.90;;;;;;7285440;19;20182;-79
2024/01/12 02:49:49;;;;;;;61.93;31.67;;;4.50;99.90;;;;;;7284268;19;20191;-80
2024/01/12 02:52:15;;;;;;;59.20;30.83;;;4.50;99.90;;;;;;7297167;19;20184;-79
2024/01/12 02:54:41;;;;;;;63.87;32.87;;;4.50;99.90;;;;;;7303177;19;20211;-80
2024/01/12 02:57:06;;;;;;;62.87;32.93;;;4.50;99.90;;;;;;7287679;19;20280;-81
2024/01/12 02:59:32;;;;;;;62.43;31.47;;;4.60;99.90;;;;;;7288423;19;20199;-80
2024/01/12 03:01:58;;;;;;;59.53;31.70;;;4.60;99.90;;;;;;7288225;19;20285;-82
2024/01/12 03:04:24;;;;;;;62.87;31.63;;;4.70;99.90;;;;;;7284977;19;20192;-80
2024/01/12 03:06:49;;;;;;;61.73;31.17;;;4.60;99.90;;;;;;7293880;19;20199;-80
2024/01/12 03:09:15;;;;;;;62.03;30.47;;;4.70;99.90;;;;;;7303965;19;20199;-80
2024/01/12 03:11:41;;;;;;;60.00;31.00;;;4.70;99.90;;;;;;7312317;19;20185;-81
2024/01/12 03:14:08;;;;;;;64.27;31.57;;;4.50;99.90;;;;;;7286540;19;20312;-80
2024/01/12 03:16:33;;;;;;;59.90;30.57;;;4.50;99.90;;;;;;7289399;19;20185;-80
2024/01/12 03:18:59;;;;;;;59.53;30.50;;;4.50;99.90;;;;;;7289530;19;20212;-80
2024/01/12 03:21:25;;;;;;;63.40;31.70;;;4.60;99.90;;;;;;7285158;19;20209;-80
2024/01/12 03:23:50;;;;;;;57.83;30.23;;;4.60;99.90;;;;;;7288183;19;20689;-80
2024/01/12 03:26:16;;;;;;;64.60;30.67;;;4.60;99.90;;;;;;7285858;19;20200;-80
2024/01/12 03:28:42;;;;;;;61.50;32.03;;;4.70;99.90;;;;;;7307066;19;20193;-80
2024/01/12 03:31:07;;;;;;;58.87;30.30;;;4.80;99.90;;;;;;7287980;19;20192;-81
2024/01/12 03:33:34;;;;;;;62.40;30.90;;;4.80;99.90;;;;;;7288463;19;20252;-80
2024/01/12 03:36:00;;;;;;;57.07;30.87;;;4.70;99.90;;;;;;7284596;19;20226;-80
2024/01/12 03:38:25;;;;;;;59.23;31.27;;;4.70;99.90;;;;;;7284102;19;20660;-80
2024/01/12 03:40:51;;;;;;;61.87;31.87;;;4.80;99.90;;;;;;7284446;19;20190;-80
2024/01/12 03:43:17;;;;;;;57.77;30.80;;;4.80;99.90;;;;;;7284353;19;20210;-80
2024/01/12 03:45:43;;;;;;;55.83;30.27;;;4.70;99.90;;;;;;7305099;19;20723;-80
2024/01/12 03:48:08;;;;;;;58.43;30.47;;;4.70;99.90;;;;;;7283425;19;20206;-80
2024/01/12 03:50:34;;;;;;;60.30;30.10;;;4.70;99.90;;;;;;7284312;19;20218;-80
2024/01/12 03:53:00;;;;;;;57.77;30.07;;;4.70;99.90;;;;;;7284473;19;20203;-80
2024/01/12 03:55:25;;;;;;;68.50;32.00;;;4.70;99.90;;;;;;7284173;19;20225;-80
2024/01/12 03:57:52;;;;;;;65.03;31.97;;;4.70;99.90;;;;;;7284340;19;20188;-80
2024/01/12 04:00:17;;;;;;;61.27;31.87;;;4.80;99.90;;;;;;7279727;19;20225;-80
2024/01/12 04:02:43;;;;;;;61.00;31.73;;;4.80;99.90;;;;;;7304308;19;20707;-80
2024/01/12 04:05:09;;;;;;;55.43;29.57;;;4.80;99.90;;;;;;7282777;19;20212;-81
2024/01/12 04:07:35;;;;;;;57.13;30.00;;;4.70;99.90;;;;;;7282491;19;20304;-79
2024/01/12 04:10:01;;;;;;;64.50;33.33;;;4.70;99.90;;;;;;7282478;19;20194;-80
2024/01/12 04:12:26;;;;;;;64.03;32.23;;;4.80;99.90;;;;;;7282189;19;20199;-79
2024/01/12 04:14:52;;;;;;;55.10;28.60;;;4.80;99.90;;;;;;7284343;19;20177;-79
2024/01/12 04:17:18;;;;;;;56.97;29.13;;;4.60;99.90;;;;;;7283148;19;20190;-81
2024/01/12 04:19:44;;;;;;;57.60;30.33;;;4.40;99.90;;;;;;7304900;19;20208;-80
2024/01/12 04:22:10;;;;;;;58.57;31.47;;;4.50;99.90;;;;;;7283608;19;20184;-79
2024/01/12 04:24:35;;;;;;;62.23;29.83;;;4.60;99.90;;;;;;7283061;19;21160;-80
2024/01/12 04:27:01;;;;;;;54.10;28.10;;;4.60;99.90;;;;;;7283372;19;20227;-79
2024/01/12 04:29:27;;;;;;;56.87;29.27;;;4.70;99.90;;;;;;7282623;19;20606;-79
2024/01/12 04:31:52;;;;;;;56.47;30.30;;;4.70;99.90;;;;;;7282468;19;20198;-79
2024/01/12 04:34:18;;;;;;;60.67;30.93;;;4.70;99.90;;;;;;7283303;19;20205;-79
2024/01/12 04:36:44;;;;;;;67.40;32.67;;;4.80;99.90;;;;;;7305019;19;20193;-79
2024/01/12 04:39:09;;;;;;;55.20;29.83;;;4.80;99.90;;;;;;7283447;19;20808;-79
2024/01/12 04:41:35;;;;;;;54.07;29.33;;;4.70;99.90;;;;;;7284006;19;20195;-79
2024/01/12 04:44:01;;;;;;;56.40;29.67;;;4.60;99.90;;;;;;7283518;19;20184;-79
2024/01/12 04:46:28;;;;;;;58.60;30.47;;;4.60;99.90;;;;;;7282406;19;20192;-79
2024/01/12 04:48:55;;;;;;;55.60;30.10;;;4.60;99.90;;;;;;7281896;19;20649;-79
2024/01/12 04:51:20;;;;;;;60.87;30.73;;;4.70;99.90;;;;;;7282601;19;20197;-79
2024/01/12 04:53:46;;;;;;;60.13;30.87;;;4.70;99.90;;;;;;7284227;19;20198;-78
2024/01/12 04:56:12;;;;;;;58.93;29.90;;;4.80;99.90;;;;;;7303355;19;20253;-80
2024/01/12 04:58:38;;;;;;;58.37;30.93;;;4.80;99.90;;;;;;7281728;19;20209;-79
2024/01/12 05:01:04;;;;;;;61.77;31.37;;;4.90;99.90;;;;;;7281757;19;20202;-80
2024/01/12 05:03:30;;;;;;;63.43;32.00;;;5.00;99.90;;;;;;7281808;19;20193;-79
2024/01/12 05:05:55;;;;;;;64.60;32.00;;;5.10;99.90;;;;;;7282056;19;20203;-80
2024/01/12 05:08:21;;;;;;;58.77;31.10;;;5.00;99.90;;;;;;7282560;19;20191;-80
2024/01/12 05:10:47;;;;;;;63.83;30.57;;;4.90;99.90;;;;;;7278897;19;20194;-79
2024/01/12 05:13:13;;;;;;;59.37;30.63;;;4.90;99.90;;;;;;7303682;19;20180;-79
2024/01/12 05:15:38;;;;;;;60.67;30.87;;;4.80;99.90;;;;;;7281453;19;20255;-80
2024/01/12 05:18:05;;;;;;;58.13;29.53;;;4.80;99.90;;;;;;7282247;19;20198;-79
2024/01/12 05:20:31;;;;;;;56.70;30.60;;;4.70;99.90;;;;;;7286437;19;20216;-80
2024/01/12 05:22:56;;;;;;;62.43;31.73;;;4.70;99.90;;;;;;7280785;19;20208;-80
2024/01/12 05:25:22;;;;;;;55.50;29.83;;;4.70;99.90;;;;;;7282541;19;20199;-81
2024/01/12 05:27:48;;;;;;;55.97;30.00;;;4.80;99.90;;;;;;7288137;19;20656;-80
2024/01/12 05:30:13;;;;;;;55.77;26.30;;;4.90;99.90;;;;;;7310182;19;20283;-80
2024/01/12 05:32:39;;;;;;;52.60;28.97;;;5.00;99.90;;;;;;7289633;19;20256;-80
2024/01/12 05:35:05;;;;;;;50.73;27.80;;;4.90;99.90;;;;;;7289657;19;20203;-80
2024/01/12 05:37:31;;;;;;;55.83;28.00;;;4.90;99.90;;;;;;7289298;19;20216;-80
2024/01/12 05:39:56;;;;;;;57.63;27.63;;;4.80;99.90;;;;;;7290045;19;20187;-80
2024/01/12 05:42:22;;;;;;;52.27;27.93;;;4.90;99.90;;;;;;7288599;19;20550;-80
2024/01/12 05:44:48;;;;;;;53.33;27.97;;;5.00;99.90;;;;;;7290077;19;20214;-80
2024/01/12 05:47:14;;;;;;;55.07;29.23;;;4.90;99.90;;;;;;7317698;19;20192;-82
2024/01/12 05:49:39;;;;;;;53.90;27.23;;;4.90;99.90;;;;;;7293939;19;20284;-82
2024/01/12 05:52:06;;;;;;;55.97;27.00;;;4.90;99.90;;;;;;7293763;19;20197;-82
2024/01/12 05:54:32;;;;;;;53.13;24.93;;;4.90;99.90;;;;;;7288882;19;20184;-81
2024/01/12 05:56:58;;;;;;;50.53;22.97;;;5.00;99.90;;;;;;7287753;19;20203;-81
2024/01/12 05:59:24;;;;;;;49.10;22.40;;;4.90;99.90;;;;;;7288384;19;20273;-82
2024/01/12 06:01:51;;;;;;;48.83;23.43;;;4.70;99.90;;;;;;7287680;19;20772;-82
2024/01/12 06:04:16;;;;;;;46.77;22.60;;;4.70;99.90;;;;;;7289754;19;20239;-80
2024/01/12 06:06:42;;;;;;;47.57;19.23;;;4.70;99.90;;;;;;7308324;19;20191;-81
2024/01/12 06:09:08;;;;;;;44.83;19.10;;;4.70;99.90;;;;;;7286202;19;20191;-81
2024/01/12 06:11:35;;;;;;;45.67;16.80;;;4.90;99.90;;;;;;7286581;19;20542;-81
2024/01/12 06:14:01;;;;;;;40.60;17.03;;;4.50;99.90;;;;;;7286554;19;20202;-79
2024/01/12 06:16:26;;;;;;;43.97;18.10;;;4.50;99.90;;;;;;7285485;19;20573;-81
2024/01/12 06:18:52;;;;;;;39.93;16.60;;;4.40;99.90;;;;;;7285762;19;20191;-79
2024/01/12 06:21:18;;;;;;;35.77;15.97;;;4.50;99.90;;;;;;7285947;19;20188;-81
2024/01/12 06:23:44;;;;;;;40.73;15.00;;;4.50;99.90;;;;;;7308962;19;20217;-79
2024/01/12 06:26:09;;;;;;;38.00;15.63;;;4.20;99.90;;;;;;7286476;19;20239;-79
2024/01/12 06:28:35;;;;;;;39.87;14.13;;;4.30;99.90;;;;;;7285817;19;20203;-80
2024/01/12 06:31:01;;;;;;;37.23;14.30;;;4.30;99.90;;;;;;7287002;19;20589;-79
2024/01/12 06:33:28;;;;;;;41.67;16.90;;;4.40;99.90;;;;;;7285392;19;20746;-81
2024/01/12 06:35:54;;;;;;;38.90;14.20;;;4.20;99.90;;;;;;7283176;19;20203;-81
2024/01/12 06:38:20;;;;;;;41.50;14.33;;;4.30;99.90;;;;;;7283378;19;20203;-81
2024/01/12 06:40:45;;;;;;;37.13;14.30;;;4.40;99.90;;;;;;7299209;19;20186;-80
2024/01/12 06:43:11;;;;;;;38.47;14.47;;;4.50;99.90;;;;;;7301495;19;20183;-80
2024/01/12 06:45:37;;;;;;;42.30;13.50;;;4.60;99.90;;;;;;7286300;19;20186;-80
2024/01/12 06:48:03;;;;;;;34.13;13.93;;;4.70;99.90;;;;;;7285638;19;20193;-81
2024/01/12 06:50:29;;;;;;;33.53;13.17;;;4.60;99.90;;;;;;7287017;19;20625;-83
2024/01/12 06:52:56;;;;;;;40.83;14.50;;;4.30;99.90;;;;;;7287302;19;20199;-79
2024/01/12 06:55:22;;;;;;;34.60;13.93;;;4.40;99.90;;;;;;7284498;19;20665;-80
2024/01/12 06:57:47;;;;;;;41.80;15.10;;;4.50;99.90;;;;;;7284192;19;20190;-82
2024/01/12 07:00:15;;;;;;;36.80;14.13;;;4.50;99.90;;;;;;7305782;19;20186;-82
2024/01/12 07:02:40;;;;;;;37.80;15.43;;;4.30;99.90;;;;;;7285606;19;20732;-82
2024/01/12 07:05:07;;;;;;;40.03;14.87;;;4.30;99.90;;;;;;7284198;19;20184;-83
2024/01/12 07:07:32;;;;;;;37.23;14.37;;;4.40;99.90;;;;;;7287027;19;20190;-82
2024/01/12 07:09:58;;;;;;;37.60;14.57;;;4.40;99.90;;;;;;7285613;19;20200;-82
2024/01/12 07:12:24;;;;;;;38.40;14.00;;;4.30;99.90;;;;;;7286822;19;20178;-82
2024/01/12 07:14:50;;;;;;;40.27;14.60;;;4.40;99.90;;;;;;7287537;19;20205;-82
2024/01/12 07:17:16;;;;;;;41.83;15.90;;;4.50;99.90;;;;;;7296644;19;20208;-82
2024/01/12 07:19:45;;;;;;;39.17;14.37;;;4.30;99.90;;;;;;7307011;19;20965;-82
2024/01/12 07:22:11;;;;;;;34.17;14.87;;;4.20;99.90;;;;;;7286127;19;20191;-82
2024/01/12 07:24:37;;;;;;;32.17;13.97;;;4.10;99.90;;;;;;7283386;19;20204;-82
2024/01/12 07:27:03;;;;;;;38.37;14.30;;;4.20;99.90;;;;;;7285521;19;20195;-83
2024/01/12 07:29:30;;;;;;;41.27;14.97;;;4.10;99.90;;;;;;7285330;19;20287;-82
2024/01/12 07:31:56;;;;;;;38.60;14.20;;;4.10;99.90;;;;;;7287607;19;20196;-82
2024/01/12 07:34:22;;;;;;;42.53;16.33;;;3.90;99.90;;;;;;7284428;19;20231;-82
2024/01/12 07:36:48;;;;;;;40.50;16.57;;;3.90;99.90;;;;;;7283886;19;20712;-82
2024/01/12 07:39:14;;;;;;;42.93;16.47;;;3.90;99.90;;;;;;7307959;19;20187;-82
2024/01/12 07:41:41;;;;;;;41.57;16.07;;;4.00;99.90;;;;;;7284457;19;20197;-82
2024/01/12 07:44:07;;;;;;;48.53;16.93;;;4.00;99.90;;;;;;7286066;19;20171;-83
2024/01/12 07:46:34;;;;;;;34.87;16.23;;;4.00;99.90;;;;;;7285126;19;20241;-83
2024/01/12 07:49:01;;;;;;;48.47;17.03;;;4.00;99.90;;;;;;7282761;19;20199;-83
2024/01/12 07:51:27;;;;;;;46.47;18.40;;;4.20;99.90;;;;;;7284556;19;20185;-83
2024/01/12 07:53:53;;;;;;;42.63;17.50;;;4.20;99.90;;;;;;7284797;19;20210;-82
2024/01/12 07:56:18;;;;;;;43.17;17.93;;;4.10;99.90;;;;;;7285099;19;20743;-82
2024/01/12 07:58:45;;;;;;;45.03;17.37;;;4.00;99.90;;;;;;7306824;19;20183;-83
2024/01/12 08:01:15;;;;;;;41.00;18.83;;;3.90;99.90;;;;;;7286074;19;20191;-83
2024/01/12 08:03:42;;;;;;;45.03;17.93;;;3.90;99.90;;;;;;7284391;19;20228;-83
2024/01/12 08:06:08;;;;;;;41.90;19.30;;;3.90;99.90;;;;;;7282984;19;20251;-83
2024/01/12 08:08:33;;;;;;;42.27;19.30;;;3.90;99.90;;;;;;7284859;19;20207;-83
2024/01/12 08:10:59;;;;;;;46.87;19.27;;;3.90;99.90;;;;;;7285395;19;20205;-83
2024/01/12 08:13:25;;;;;;;43.67;18.77;;;3.90;99.90;;;;;;7284749;19;20183;-83
2024/01/12 08:15:51;;;;;;;47.07;19.57;;;4.00;99.90;;;;;;7284677;19;20190;-83
2024/01/12 08:18:18;;;;;;;44.30;19.33;;;3.90;99.90;;;;;;7292416;19;20186;-83
2024/01/12 08:20:45;;;;;;;42.77;19.80;;;4.00;99.90;;;;;;7306347;19;20179;-83
2024/01/12 08:23:11;;;;;;;45.27;19.33;;;4.00;99.90;;;;;;7282700;19;20636;-83
2024/01/12 08:25:37;;;;;;;51.17;20.13;;;3.90;99.90;;;;;;7282727;19;20294;-83
2024/01/12 08:28:03;;;;;;;38.60;17.97;;;3.90;99.90;;;;;;7281164;19;20212;-83
2024/01/12 08:30:29;;;;;;;46.43;18.43;;;3.80;99.90;;;;;;7285683;19;20185;-82
2024/01/12 08:32:55;;;;;;;41.50;18.60;;;3.80;99.90;;;;;;7283815;19;20652;-83
2024/01/12 08:35:21;;;;;;;49.40;20.03;;;3.90;99.90;;;;;;7283045;19;20193;-83
2024/01/12 08:37:46;;;;;;;44.33;18.67;;;3.90;99.90;;;;;;7290955;19;20181;-82
2024/01/12 08:40:12;;;;;;;41.03;18.87;;;4.00;99.90;;;;;;7312638;19;20238;-83
2024/01/12 08:42:39;;;;;;;39.93;18.60;;;4.10;99.90;;;;;;7288814;19;20193;-83
2024/01/12 08:45:05;;;;;;;39.50;18.37;;;4.20;99.90;;;;;;7291143;19;20193;-83
2024/01/12 08:47:31;;;;;;;38.97;18.00;;;4.20;99.90;;;;;;7292926;19;20263;-83
2024/01/12 08:49:58;;;;;;;40.13;17.70;;;4.30;99.90;;;;;;7290011;19;20194;-83
2024/01/12 08:52:24;;;;;;;43.10;17.57;;;4.30;99.90;;;;;;7285768;19;20187;-84
2024/01/12 08:54:50;;;;;;;44.70;17.33;;;4.30;99.90;;;;;;7285389;19;20187;-83
2024/01/12 08:57:16;;;;;;;49.13;17.77;;;4.50;99.90;;;;;;7302477;19;20203;-82
2024/01/12 08:59:41;;;;;;;45.40;18.03;;;4.60;99.90;;;;;;7301162;19;20194;-83
2024/01/12 09:02:07;;;;;;;44.13;18.17;;;4.60;99.90;;;;;;7289452;19;20207;-83
2024/01/12 09:04:34;;;;;;;40.77;17.77;;;4.60;99.90;;;;;;7291366;19;20563;-83
2024/01/12 09:07:00;;;;;;;40.93;17.50;;;4.50;99.90;;;;;;7291570;19;20184;-83
2024/01/12 09:09:26;;;;;;;41.97;17.13;;;4.60;99.90;;;;;;7290228;19;20644;-83
2024/01/12 09:11:52;;;;;;;42.63;18.07;;;4.70;99.90;;;;;;7289921;19;20190;-83
2024/01/12 09:14:18;;;;;;;42.20;17.13;;;4.70;99.90;;;;;;7299943;19;20214;-82
2024/01/12 09:16:44;;;;;;;43.23;17.60;;;4.60;99.90;;;;;;7312549;19;20191;-83
2024/01/12 09:19:09;;;;;;;40.30;17.53;;;4.70;99.90;;;;;;7290352;19;20197;-83
2024/01/12 09:21:35;;;;;;;42.83;18.30;;;4.80;99.90;;;;;;7290193;19;20662;-83
2024/01/12 09:24:01;;;;;;;39.53;18.00;;;5.00;99.90;;;;;;7289190;19;20284;-83
2024/01/12 09:26:27;;;;;;;45.00;20.30;;;5.10;99.90;;;;;;7288216;19;20193;-83
2024/01/12 09:28:53;;;;;;;43.13;19.27;;;5.20;99.90;;;;;;7287559;19;20199;-83
2024/01/12 09:31:18;;;;;;;42.57;18.87;;;5.30;99.90;;;;;;7288546;19;20553;-83
2024/01/12 09:33:44;;;;;;;42.27;17.87;;;5.40;99.90;;;;;;7308014;19;20225;-83
2024/01/12 09:36:10;;;;;;;40.57;16.73;;;5.50;99.90;;;;;;7285904;19;20193;-83
2024/01/12 09:38:36;;;;;;;38.13;16.30;;;5.50;99.90;;;;;;7285374;19;20209;-83
2024/01/12 09:41:02;;;;;;;33.30;15.33;;;5.50;99.90;;;;;;7284712;19;20209;-83
2024/01/12 09:43:29;;;;;;;37.00;16.10;;;5.50;99.90;;;;;;7285873;19;20769;-83
2024/01/12 09:46:00;;;;;;;39.53;16.30;;;5.60;99.90;;;;;;7284150;19;20191;-83
2024/01/12 09:48:27;;;;;;;37.93;16.30;;;5.60;99.90;;;;;;7284612;19;20221;-83
2024/01/12 09:50:55;;;;;;;36.83;15.63;;;5.70;99.90;;;;;;7286588;19;20184;-83
2024/01/12 09:53:21;;;;;;;38.43;16.30;;;5.80;99.90;;;;;;7289009;19;20200;-83
2024/01/12 09:55:48;;;;;;;37.67;15.33;;;5.90;99.90;;;;;;7307105;19;20187;-82
2024/01/12 09:58:15;;;;;;;35.83;16.40;;;5.90;99.90;;;;;;7307149;19;20184;-84
2024/01/12 10:00:43;;;;;;;34.10;15.27;;;5.80;99.90;;;;;;7286664;19;20232;-83
2024/01/12 10:03:10;;;;;;;32.23;14.23;;;5.80;99.90;;;;;;7286664;19;20205;-83
2024/01/12 10:05:37;;;;;;;35.90;14.13;;;5.90;99.90;;;;;;7288049;19;20257;-83
2024/01/12 10:08:06;;;;;;;31.50;13.67;;;5.90;99.90;;;;;;7285998;19;20712;-83
2024/01/12 10:10:32;;;;;;;36.60;13.93;;;5.80;99.90;;;;;;7284451;19;20189;-84
2024/01/12 10:12:58;;;;;;;35.70;14.00;;;5.80;99.90;;;;;;7288464;19;20189;-83
2024/01/12 10:15:24;;;;;;;37.37;14.40;;;5.90;99.90;;;;;;7286099;19;20253;-83
2024/01/12 10:17:51;;;;;;;31.73;14.37;;;6.00;99.90;;;;;;7286121;19;20200;-82
2024/01/12 10:20:17;;;;;;;32.47;15.37;;;5.90;99.90;;;;;;7305295;19;20249;-82
2024/01/12 10:22:43;;;;;;;33.27;14.23;;;5.90;99.90;;;;;;7298133;19;20223;-83
2024/01/12 10:25:09;;;;;;;38.63;15.70;;;5.80;99.90;;;;;;7285388;19;20203;-83
2024/01/12 10:27:34;;;;;;;37.07;15.53;;;5.90;99.90;;;;;;7286910;19;20204;-83
2024/01/12 10:30:00;;;;;;;34.67;15.23;;;6.00;99.90;;;;;;7285832;19;20205;-83
2024/01/12 10:32:26;;;;;;;35.20;15.27;;;6.00;99.90;;;;;;7286697;19;20790;-83
2024/01/12 10:34:53;;;;;;;34.13;14.67;;;6.10;99.90;;;;;;7285624;19;20188;-82
2024/01/12 10:37:20;;;;;;;40.10;15.57;;;6.10;99.90;;;;;;7284418;19;20200;-83
2024/01/12 10:39:50;;;;;;;34.57;14.13;;;6.10;99.90;;;;;;7309085;19;20191;-84
2024/01/12 10:42:19;;;;;;;34.23;14.77;;;6.00;99.90;;;;;;7286248;19;20206;-83
2024/01/12 10:44:46;;;;;;;36.23;14.20;;;6.00;99.90;;;;;;7285715;19;20185;-83
2024/01/12 10:47:17;;;;;;;35.67;13.90;;;6.00;99.90;;;;;;7287022;19;20191;-84
2024/01/12 10:50:03;;;;;;;35.33;14.03;;;6.10;99.90;;;;;;7286273;19;20192;-83
2024/01/12 10:53:02;;;;;;;40.33;13.63;;;6.00;99.90;;;;;;7183079;19;2004467;-84
2024/01/12 10:55:36;;;;;;;36.77;13.80;;;6.10;99.90;;;;;;7184004;19;2004790;-83
2024/01/12 10:58:02;;;;;;;30.60;13.53;;;6.10;99.90;;;;;;7286399;19;20213;-83
2024/01/12 11:00:32;;;;;;;31.33;13.77;;;6.20;99.90;;;;;;7286225;19;20207;-83
2024/01/12 11:03:03;;;;;;;32.43;12.93;;;6.30;99.90;;;;;;7286242;19;20701;-84
2024/01/12 11:05:31;;;;;;;38.13;14.07;;;6.30;99.90;;;;;;7284392;19;20215;-80
2024/01/12 11:08:02;;;;;;;40.23;13.77;;;6.20;99.90;;;;;;7282771;19;20267;-83
2024/01/12 11:10:28;;;;;;;38.03;13.67;;;6.20;99.90;;;;;;7284287;19;20239;-83
2024/01/12 11:12:55;;;;;;;32.07;14.10;;;6.20;99.90;;;;;;7277667;19;20268;-83
2024/01/12 11:15:22;;;;;;;30.27;13.53;;;6.20;99.90;;;;;;7283481;19;20609;-83
2024/01/12 11:17:48;;;;;;;35.93;13.67;;;6.20;99.90;;;;;;7300020;19;20188;-83
2024/01/12 11:20:19;;;;;;;40.10;14.20;;;6.30;99.90;;;;;;7306537;19;20594;-82
2024/01/12 11:22:47;;;;;;;36.00;14.77;;;6.30;99.90;;;;;;7285853;19;20193;-83
2024/01/12 11:25:14;;;;;;;31.73;14.47;;;6.30;99.90;;;;;;7284250;19;20263;-83
2024/01/12 11:27:48;;;;;;;35.70;13.77;;;6.20;99.90;;;;;;7286394;19;20189;-83
2024/01/12 11:30:20;;;;;;;32.47;12.60;;;6.10;99.90;;;;;;7285684;19;20212;-83
2024/01/12 11:32:46;;;;;;;34.33;13.13;;;6.10;99.90;;;;;;7284978;19;20199;-83
2024/01/12 11:35:17;;;;;;;38.70;13.70;;;6.10;99.90;;;;;;7285264;19;20192;-83
2024/01/12 11:37:45;;;;;;;34.97;13.57;;;6.20;99.90;;;;;;7283308;19;20181;-83
2024/01/12 11:40:15;;;;;;;34.47;13.03;;;6.30;99.90;;;;;;7284311;19;20177;-83
2024/01/12 11:42:43;;;;;;;36.53;13.43;;;6.30;99.90;;;;;;7284571;19;20637;-83
2024/01/12 11:45:11;;;;;;;37.27;14.60;;;6.30;99.90;;;;;;7285618;19;20228;-83
2024/01/12 11:47:41;;;;;;;34.67;15.00;;;6.30;99.90;;;;;;7284214;19;20607;-83
2024/01/12 11:50:08;;;;;;;32.00;13.27;;;6.30;99.90;;;;;;7285148;19;20178;-83
2024/01/12 11:52:36;;;;;;;37.70;13.93;;;6.20;99.90;;;;;;7283893;19;21050;-84
2024/01/12 11:55:09;;;;;;;33.07;13.40;;;6.40;99.90;;;;;;7285649;19;20499;-83
2024/01/12 11:57:36;;;;;;;30.83;13.97;;;6.50;99.90;;;;;;7281608;19;20209;-83
2024/01/12 12:00:06;;;;;;;30.60;12.03;;;6.50;99.90;;;;;;7283292;19;20964;-83
2024/01/12 12:02:36;;;;;;;30.70;12.83;;;6.50;99.90;;;;;;7283557;19;20672;-83
2024/01/12 12:05:06;;;;;;;40.73;13.60;;;6.70;99.90;;;;;;7282506;19;20193;-83
2024/01/12 12:07:35;;;;;;;30.70;11.50;;;6.80;99.90;;;;;;7282664;19;20192;-83
2024/01/12 12:10:02;;;;;;;30.00;11.80;;;6.90;99.90;;;;;;7280731;19;20245;-83
2024/01/12 12:12:27;;;;;;;30.03;11.47;;;7.00;99.90;;;;;;7281262;19;20199;-83
2024/01/12 12:15:07;;;;;;;32.27;11.30;;;7.20;99.90;;;;;;7283835;19;20193;-83
2024/01/12 12:17:42;;;;;;;28.97;10.87;;;7.30;99.90;;;;;;7283579;19;20253;-84
2024/01/12 12:20:10;;;;;;;25.97;12.17;;;7.20;99.90;;;;;;7284655;19;20670;-83
2024/01/12 12:22:46;;;;;;;36.73;12.27;;;7.10;99.90;;;;;;7282158;19;20185;-84
2024/01/12 12:25:14;;;;;;;30.20;11.47;;;7.30;99.90;;;;;;7282909;19;20217;-83
2024/01/12 12:27:41;;;;;;;30.60;11.03;;;7.50;99.90;;;;;;7282332;19;20202;-81
2024/01/12 12:30:11;;;;;;;29.37;11.67;;;7.30;99.90;;;;;;7283229;19;20197;-81
2024/01/12 12:32:41;;;;;;;26.23;10.07;;;7.30;99.90;;;;;;7280353;19;20197;-81